Time;durP1;ratioP1;P1;durP2;ratioP2;P2;SDS_P1;SDS_P2;PMS_P1;PMS_P2;Temp;Humidity;BMP_temperature;BMP_pressure;BME280_temperature;BME280_humidity;BME280_pressure;Samples;Min_cycle;Max_cycle;Signal;HPM_P1;HPM_P2
2022/05/28 00:00:59;;;;;;;6.50;5.90;;;12.60;99.90;;;;;;4979469;28;20463;-80
2022/05/28 00:03:28;;;;;;;7.27;6.67;;;12.50;99.90;;;;;;4980998;28;20467;-79
2022/05/28 00:05:57;;;;;;;6.50;5.90;;;12.40;99.90;;;;;;4980232;28;20476;-80
2022/05/28 00:08:25;;;;;;;6.70;5.50;;;12.40;99.90;;;;;;4980882;28;20467;-80
2022/05/28 00:10:54;;;;;;;9.70;6.10;;;12.40;99.90;;;;;;4980020;28;20463;-80
2022/05/28 00:13:21;;;;;;;7.10;5.43;;;12.40;99.90;;;;;;4980025;28;20451;-80
2022/05/28 00:15:48;;;;;;;6.97;6.27;;;12.40;99.90;;;;;;4979386;28;20603;-79
2022/05/28 00:18:15;;;;;;;11.13;6.90;;;12.20;99.90;;;;;;4968980;28;20475;-79
2022/05/28 00:20:41;;;;;;;9.07;8.20;;;12.10;99.90;;;;;;4979804;28;20455;-80
2022/05/28 00:23:10;;;;;;;6.90;6.20;;;12.00;99.90;;;;;;4979729;28;20458;-79
2022/05/28 00:25:36;;;;;;;7.90;7.07;;;12.00;99.90;;;;;;4979884;28;20456;-79
2022/05/28 00:28:03;;;;;;;7.43;6.43;;;11.90;99.90;;;;;;4979419;28;20471;-80
2022/05/28 00:30:30;;;;;;;9.20;7.60;;;11.90;99.90;;;;;;4979569;28;20452;-80
2022/05/28 00:32:57;;;;;;;8.93;8.03;;;12.00;99.90;;;;;;4980130;28;20844;-80
2022/05/28 00:35:24;;;;;;;10.23;8.80;;;12.00;99.90;;;;;;4979445;28;20490;-80
2022/05/28 00:37:50;;;;;;;9.90;8.70;;;12.00;99.90;;;;;;4979563;28;20468;-80
2022/05/28 00:40:21;;;;;;;8.40;7.60;;;12.00;99.90;;;;;;4979411;28;20459;-80
2022/05/28 00:42:49;;;;;;;8.83;8.03;;;11.90;99.90;;;;;;4978998;28;20460;-79
2022/05/28 00:45:16;;;;;;;9.13;8.20;;;11.80;99.90;;;;;;4978922;28;20956;-80
2022/05/28 00:47:48;;;;;;;10.83;8.63;;;11.80;99.90;;;;;;4978888;28;20727;-79
2022/05/28 00:50:16;;;;;;;10.27;8.20;;;11.80;99.90;;;;;;4978472;28;20455;-80
2022/05/28 00:52:43;;;;;;;11.60;8.73;;;11.70;99.90;;;;;;4979056;28;20459;-80
2022/05/28 00:55:10;;;;;;;9.40;8.60;;;11.70;99.90;;;;;;4982312;28;20493;-81
2022/05/28 00:57:41;;;;;;;12.03;8.93;;;11.70;99.90;;;;;;4983060;28;20485;-78
2022/05/28 01:00:10;;;;;;;13.03;9.60;;;11.70;99.90;;;;;;4982185;28;20466;-79
2022/05/28 01:02:45;;;;;;;8.83;7.93;;;11.70;99.90;;;;;;4983109;28;20451;-80
2022/05/28 01:05:20;;;;;;;8.97;8.10;;;11.80;99.90;;;;;;4983420;28;20461;-80
2022/05/28 01:07:58;;;;;;;8.70;7.77;;;11.80;99.90;;;;;;4982840;28;20573;-79
2022/05/28 01:10:33;;;;;;;8.97;8.03;;;11.80;99.90;;;;;;4982779;28;20458;-79
2022/05/28 01:13:07;;;;;;;11.23;10.10;;;11.90;99.90;;;;;;4983296;28;20545;-79
2022/05/28 01:15:38;;;;;;;11.77;8.13;;;12.00;99.90;;;;;;4983042;28;20493;-79
2022/05/28 01:18:11;;;;;;;9.00;8.20;;;11.90;99.90;;;;;;4963391;28;20478;-80
2022/05/28 01:20:41;;;;;;;9.83;8.50;;;11.80;99.90;;;;;;4975523;28;20517;-79
2022/05/28 01:23:29;;;;;;;10.93;9.77;;;11.70;99.90;;;;;;4983061;28;20458;-79
2022/05/28 01:26:06;;;;;;;8.30;7.60;;;11.60;99.90;;;;;;4983185;28;20454;-79
2022/05/28 01:28:39;;;;;;;11.43;6.80;;;11.50;99.90;;;;;;4982410;28;20865;-79
2022/05/28 01:31:07;;;;;;;10.13;7.17;;;11.50;99.90;;;;;;4982177;28;20462;-79
2022/05/28 01:33:36;;;;;;;9.63;6.70;;;11.40;99.90;;;;;;4982971;28;20459;-79
2022/05/28 01:36:06;;;;;;;8.63;7.20;;;11.50;99.90;;;;;;4982918;28;20627;-78
2022/05/28 01:38:35;;;;;;;8.77;6.73;;;11.50;99.90;;;;;;4982642;28;20484;-79
2022/05/28 01:41:06;;;;;;;7.00;6.30;;;11.40;99.90;;;;;;4982530;28;20458;-79
2022/05/28 01:43:37;;;;;;;10.83;7.70;;;11.30;99.90;;;;;;4983020;28;20466;-79
2022/05/28 01:46:07;;;;;;;8.30;7.50;;;11.30;99.90;;;;;;4982295;28;20454;-79
2022/05/28 01:48:35;;;;;;;8.27;7.03;;;11.20;99.90;;;;;;4982469;28;20485;-80
2022/05/28 01:51:03;;;;;;;7.60;6.60;;;11.20;99.90;;;;;;4982438;28;20553;-80
2022/05/28 01:56:17;;;;;;;11.27;6.50;;;11.00;99.90;;;;;;4982066;28;20495;-80
2022/05/28 01:58:45;;;;;;;9.97;6.97;;;10.90;99.90;;;;;;4982761;28;20532;-80
2022/05/28 02:01:12;;;;;;;8.70;6.23;;;10.80;99.90;;;;;;4982385;28;20987;-80
2022/05/28 02:03:43;;;;;;;6.07;5.50;;;10.80;99.90;;;;;;4982147;28;20680;-80
2022/05/28 02:06:11;;;;;;;11.57;6.23;;;10.70;99.90;;;;;;4981764;28;20463;-80
2022/05/28 02:08:40;;;;;;;7.53;6.10;;;10.70;99.90;;;;;;4981647;28;20475;-80
2022/05/28 02:11:11;;;;;;;9.93;6.37;;;10.70;99.90;;;;;;4981684;28;20443;-80
2022/05/28 02:13:55;;;;;;;7.20;6.10;;;10.60;99.90;;;;;;4981954;28;20453;-80
2022/05/28 02:16:30;;;;;;;9.67;5.90;;;10.60;99.90;;;;;;4981031;28;20508;-80
2022/05/28 02:19:00;;;;;;;8.90;5.47;;;10.50;99.90;;;;;;4980328;28;20478;-80
2022/05/28 02:21:33;;;;;;;7.40;6.70;;;10.50;99.90;;;;;;4980057;28;20533;-80
2022/05/28 02:24:04;;;;;;;7.03;5.23;;;10.40;99.90;;;;;;4980465;28;20437;-79
2022/05/28 02:26:36;;;;;;;7.03;5.43;;;10.30;99.90;;;;;;4979597;28;20446;-80
2022/05/28 02:29:06;;;;;;;9.63;4.65;;;10.20;99.90;;;;;;4979148;28;20486;-78
2022/05/28 02:31:34;;;;;;;5.90;4.87;;;10.20;99.90;;;;;;4979075;28;20214;-80
2022/05/28 02:34:02;;;;;;;7.45;5.38;;;10.30;99.90;;;;;;4979490;28;20508;-79
2022/05/28 02:36:30;;;;;;;4.37;3.63;;;10.30;99.90;;;;;;4979485;28;20231;-79
2022/05/28 02:38:57;;;;;;;12.23;5.00;;;10.40;99.90;;;;;;4979295;28;20473;-79
2022/05/28 02:41:24;;;;;;;6.93;6.10;;;10.20;99.90;;;;;;4978951;28;20465;-80
2022/05/28 02:43:52;;;;;;;5.50;4.77;;;10.30;99.90;;;;;;4979100;28;20869;-80
2022/05/28 02:46:21;;;;;;;10.50;5.33;;;10.20;99.90;;;;;;4979794;28;20451;-80
2022/05/28 03:11:43;;;;;;;8.13;4.60;;;9.50;99.90;;;;;;4783341;29;20467;-82
2022/05/28 03:21:04;;;;;;;10.00;6.50;;;9.40;99.90;;;;;;4932930;29;20474;-82
2022/05/28 03:23:37;;;;;;;4.50;3.42;;;9.30;99.90;;;;;;4848707;29;20470;-82
2022/05/28 03:26:22;;;;;;;5.15;3.08;;;9.30;99.90;;;;;;4951054;29;20661;-82
2022/05/28 03:29:13;;;;;;;7.95;3.88;;;9.30;99.90;;;;;;4958075;28;20775;-82
2022/05/28 03:32:15;;;;;;;4.20;3.53;;;9.30;99.90;;;;;;4940234;28;20215;-82
2022/05/28 03:35:11;;;;;;;3.67;3.25;;;9.30;99.90;;;;;;4942710;29;20546;-82
2022/05/28 03:37:58;;;;;;;8.23;3.67;;;9.30;99.90;;;;;;4944973;29;20232;-82
2022/05/28 03:41:22;;;;;;;7.72;3.15;;;9.30;99.90;;;;;;4941283;29;20465;-83
2022/05/28 03:44:22;;;;;;;5.33;3.40;;;9.30;99.90;;;;;;4935767;29;20215;-82
2022/05/28 03:47:33;;;;;;;4.37;2.93;;;9.30;99.90;;;;;;4941617;29;20456;-82
2022/05/28 04:00:25;;;;;;;5.75;3.10;;;9.20;99.90;;;;;;4932074;29;20237;-82
2022/05/28 04:06:41;;;;;;;5.25;3.38;;;9.40;99.90;;;;;;4920207;29;20457;-82
2022/05/28 04:20:08;;;;;;;;;;;;;;;;;;;;;
2022/05/28 04:47:41;;;;;;;8.53;3.47;;;9.40;99.90;;;;;;4833010;29;20470;-82
2022/05/28 05:05:04;;;;;;;5.10;3.63;;;9.20;99.90;;;;;;4910399;29;20461;-82
2022/05/28 05:12:06;;;;;;;;;;;;;;;;;;;;;
2022/05/28 06:22:13;;;;;;;4.80;4.03;;;10.40;99.90;;;;;;4762040;29;20467;-82
2022/05/28 06:25:07;;;;;;;9.67;4.57;;;10.50;99.90;;;;;;4839228;29;20461;-84
2022/05/28 06:27:49;;;;;;;;;;;;;;;;;;;;;
2022/05/28 06:30:44;;;;;;;3.67;2.03;;;10.50;99.90;;;;;;4865477;29;20539;-84
2022/05/28 06:33:21;;;;;;;7.30;4.63;;;10.60;99.90;;;;;;4949898;28;20449;-83
2022/05/28 06:39:09;;;;;;;5.30;2.23;;;10.80;99.90;;;;;;4957705;28;20495;-84
2022/05/28 06:41:41;;;;;;;6.80;2.90;;;10.90;99.90;;;;;;4928416;29;20468;-83
2022/05/28 06:44:11;;;;;;;3.77;1.80;;;10.90;99.90;;;;;;4961705;28;20455;-84
2022/05/28 06:46:39;;;;;;;2.47;1.37;;;10.90;99.90;;;;;;4948713;29;20455;-84
2022/05/28 06:49:10;;;;;;;5.57;2.20;;;10.90;99.90;;;;;;4961418;28;20483;-84
2022/05/28 06:51:39;;;;;;;4.10;2.23;;;10.90;99.90;;;;;;4956727;28;20465;-83
2022/05/28 06:54:13;;;;;;;4.10;1.83;;;10.80;99.90;;;;;;4948463;29;20552;-83
2022/05/28 06:56:42;;;;;;;3.30;1.93;;;10.90;99.90;;;;;;4950326;28;20463;-84
2022/05/28 06:59:11;;;;;;;4.33;2.10;;;11.00;99.90;;;;;;4944339;29;20475;-84
2022/05/28 07:01:41;;;;;;;4.27;1.57;;;11.00;99.90;;;;;;4943238;29;20812;-84
2022/05/28 07:04:08;;;;;;;2.00;1.13;;;11.10;99.90;;;;;;4953481;29;20465;-84
2022/05/28 07:06:37;;;;;;;3.63;1.40;;;11.10;99.90;;;;;;4951937;29;20463;-84
2022/05/28 07:09:05;;;;;;;4.00;2.73;;;11.20;99.90;;;;;;4961503;28;20558;-84
2022/05/28 07:11:32;;;;;;;3.20;1.90;;;11.20;99.90;;;;;;4962381;28;20463;-84
2022/05/28 07:14:03;;;;;;;3.33;3.13;;;11.30;99.90;;;;;;4954922;28;20457;-84
2022/05/28 07:16:29;;;;;;;3.13;1.80;;;11.30;99.90;;;;;;4947089;29;20552;-85
2022/05/28 07:18:56;;;;;;;2.70;1.40;;;11.30;99.90;;;;;;4947541;29;20500;-84
2022/05/28 07:21:23;;;;;;;3.20;1.97;;;11.30;99.90;;;;;;4960563;29;20457;-84
2022/05/28 07:23:50;;;;;;;4.20;2.10;;;11.30;99.90;;;;;;4944803;29;20867;-85
2022/05/28 07:26:18;;;;;;;3.03;1.50;;;11.40;99.90;;;;;;4952297;29;20531;-83
2022/05/28 07:28:46;;;;;;;1.20;1.13;;;11.50;99.90;;;;;;4959551;28;20622;-85
2022/05/28 07:31:17;;;;;;;1.83;1.60;;;11.40;99.40;;;;;;4944697;29;20628;-85
2022/05/28 07:33:45;;;;;;;1.33;1.20;;;11.40;99.00;;;;;;4951166;29;20978;-85
2022/05/28 07:36:14;;;;;;;1.37;1.10;;;11.50;99.90;;;;;;4959203;28;20536;-85
2022/05/28 07:38:43;;;;;;;3.47;1.73;;;11.60;99.80;;;;;;4964173;28;21101;-85
2022/05/28 07:41:12;;;;;;;4.80;1.70;;;11.70;99.90;;;;;;4956896;28;20453;-85
2022/05/28 07:43:39;;;;;;;2.57;2.37;;;11.80;99.30;;;;;;4945067;29;20464;-85
2022/05/28 07:46:11;;;;;;;2.60;1.73;;;11.90;99.30;;;;;;4949967;29;20449;-85
2022/05/28 07:48:39;;;;;;;3.00;1.80;;;11.90;98.90;;;;;;4951526;28;20484;-85
2022/05/28 07:51:06;;;;;;;4.73;1.80;;;12.00;97.90;;;;;;4944664;29;20464;-85
2022/05/28 07:53:33;;;;;;;3.50;1.90;;;12.00;99.00;;;;;;4945123;29;20546;-85
2022/05/28 07:56:01;;;;;;;1.60;1.10;;;12.10;97.60;;;;;;4957431;29;20449;-85
2022/05/28 07:58:28;;;;;;;4.67;2.20;;;12.20;96.60;;;;;;4944933;29;20493;-85
2022/05/28 08:00:56;;;;;;;1.70;1.53;;;12.30;96.90;;;;;;4949915;29;20456;-85
2022/05/28 08:03:23;;;;;;;2.20;1.40;;;12.40;97.00;;;;;;4963306;28;20532;-85
2022/05/28 08:05:53;;;;;;;2.50;1.77;;;12.50;97.40;;;;;;4958054;28;20465;-85
2022/05/28 08:08:23;;;;;;;4.23;1.57;;;12.70;96.60;;;;;;4942969;29;20485;-85
2022/05/28 08:10:51;;;;;;;4.60;1.70;;;12.80;96.00;;;;;;4962694;29;20484;-84
2022/05/28 08:13:20;;;;;;;4.10;1.50;;;12.90;95.10;;;;;;4958699;28;20563;-84
2022/05/28 08:15:49;;;;;;;3.20;1.67;;;13.00;95.10;;;;;;4943874;29;20500;-84
2022/05/28 08:18:18;;;;;;;1.80;1.40;;;13.10;95.40;;;;;;4960877;28;20504;-85
2022/05/28 08:23:30;;;;;;;2.60;1.20;;;13.20;95.10;;;;;;4962837;29;20456;-85
2022/05/28 08:25:57;;;;;;;2.40;1.30;;;13.10;94.10;;;;;;4961054;28;20464;-84
2022/05/28 08:28:24;;;;;;;1.33;1.23;;;13.20;95.70;;;;;;4961260;28;20507;-85
2022/05/28 08:30:50;;;;;;;3.20;1.40;;;13.30;94.10;;;;;;4961207;28;20544;-86
2022/05/28 08:33:19;;;;;;;1.60;1.57;;;13.30;93.40;;;;;;4961803;28;20463;-85
2022/05/28 08:35:47;;;;;;;2.30;1.87;;;13.40;94.00;;;;;;4948434;28;20484;-85
2022/05/28 08:38:16;;;;;;;2.03;1.37;;;13.50;94.40;;;;;;4947745;29;20520;-82
2022/05/28 08:40:46;;;;;;;1.50;1.07;;;13.50;93.40;;;;;;4958057;28;20469;-83
2022/05/28 08:43:15;;;;;;;1.90;1.20;;;13.60;94.00;;;;;;4955877;28;20569;-83
2022/05/28 08:45:43;;;;;;;2.70;1.40;;;13.60;93.40;;;;;;4953529;29;20477;-82
2022/05/28 08:48:10;;;;;;;2.10;1.37;;;13.70;92.40;;;;;;4941475;29;20461;-82
2022/05/28 08:50:47;;;;;;;3.83;2.10;;;13.70;92.90;;;;;;4959582;29;20464;-81
2022/05/28 08:53:19;;;;;;;3.43;1.50;;;13.80;92.20;;;;;;4958536;28;20460;-79
2022/05/28 08:55:53;;;;;;;2.60;1.10;;;13.90;91.90;;;;;;4918878;29;20453;-79
2022/05/28 08:58:23;;;;;;;1.90;1.53;;;14.10;93.50;;;;;;4930439;29;20576;-79
2022/05/28 09:00:55;;;;;;;1.77;1.37;;;14.10;91.30;;;;;;4929330;29;20809;-79
2022/05/28 09:03:25;;;;;;;1.60;1.50;;;14.20;91.60;;;;;;4931080;29;20831;-78
2022/05/28 09:05:59;;;;;;;2.67;2.30;;;14.40;91.70;;;;;;4931376;29;20846;-79
2022/05/28 09:08:29;;;;;;;1.70;1.20;;;14.50;91.30;;;;;;4928847;29;20497;-79
2022/05/28 09:11:00;;;;;;;3.23;1.33;;;14.40;91.30;;;;;;4925486;29;20461;-79
2022/05/28 09:13:33;;;;;;;2.23;1.20;;;14.30;91.10;;;;;;4928427;29;20458;-79
2022/05/28 09:16:03;;;;;;;3.20;1.50;;;14.20;91.30;;;;;;4930593;29;20442;-78
2022/05/28 09:18:35;;;;;;;2.23;1.50;;;14.20;91.40;;;;;;4931950;29;20874;-78
2022/05/28 09:21:03;;;;;;;2.77;1.67;;;14.30;92.20;;;;;;4932993;28;20554;-78
2022/05/28 09:23:39;;;;;;;4.03;1.30;;;14.60;92.00;;;;;;4931193;29;20447;-80
2022/05/28 09:26:09;;;;;;;2.70;1.67;;;14.60;91.00;;;;;;4932155;29;20445;-78
2022/05/28 09:28:51;;;;;;;4.00;1.73;;;14.50;89.30;;;;;;4931187;29;20504;-78
2022/05/28 09:31:33;;;;;;;1.50;1.40;;;14.50;90.30;;;;;;4929819;29;20482;-78
2022/05/28 09:34:14;;;;;;;3.70;1.30;;;14.50;90.70;;;;;;4941347;29;20453;-78
2022/05/28 09:36:51;;;;;;;2.50;1.60;;;14.50;90.90;;;;;;4957871;28;20818;-78
2022/05/28 09:39:30;;;;;;;3.20;1.27;;;14.80;90.70;;;;;;4939543;29;20876;-78
2022/05/28 09:42:07;;;;;;;1.30;1.17;;;15.20;92.20;;;;;;4941574;29;20479;-79
2022/05/28 09:44:47;;;;;;;1.90;1.20;;;15.70;89.90;;;;;;4958721;28;20453;-78
2022/05/28 09:47:16;;;;;;;2.00;1.43;;;15.90;88.50;;;;;;4954912;28;20486;-78
2022/05/28 09:49:48;;;;;;;3.57;1.30;;;16.00;88.30;;;;;;4942832;29;20474;-78
2022/05/28 09:52:23;;;;;;;2.67;1.50;;;16.10;87.00;;;;;;4944549;29;20457;-79
2022/05/28 09:54:48;;;;;;;2.60;1.33;;;15.80;84.90;;;;;;4951677;28;20789;-79
2022/05/28 09:57:24;;;;;;;2.00;1.80;;;15.90;82.40;;;;;;4946102;29;20457;-77
2022/05/28 09:59:55;;;;;;;1.97;1.20;;;16.10;84.80;;;;;;4957414;29;20224;-79
2022/05/28 10:02:26;;;;;;;3.93;1.50;;;16.10;84.40;;;;;;4945209;29;21357;-79
2022/05/28 10:04:56;;;;;;;1.60;1.50;;;16.10;84.80;;;;;;4960068;28;20453;-81
2022/05/28 10:07:31;;;;;;;2.03;1.93;;;15.90;84.00;;;;;;4960450;28;20988;-80
2022/05/28 10:09:58;;;;;;;2.60;1.37;;;15.70;85.30;;;;;;4960111;28;20492;-80
2022/05/28 10:12:29;;;;;;;1.83;1.43;;;15.70;84.20;;;;;;4959536;28;20450;-78
2022/05/28 10:15:04;;;;;;;2.87;1.53;;;15.70;80.90;;;;;;4959200;28;20457;-79
2022/05/28 10:17:33;;;;;;;1.63;0.90;;;16.00;84.30;;;;;;4959406;28;20447;-79
2022/05/28 10:20:02;;;;;;;1.53;1.07;;;16.40;82.60;;;;;;4958773;28;20558;-79
2022/05/28 10:22:30;;;;;;;5.50;2.13;;;16.70;80.10;;;;;;4959099;28;20518;-79
2022/05/28 10:25:01;;;;;;;6.17;1.30;;;16.80;80.70;;;;;;4959284;28;20474;-79
2022/05/28 10:27:34;;;;;;;2.20;1.20;;;16.70;77.70;;;;;;4959183;28;20447;-79
2022/05/28 10:30:07;;;;;;;1.40;1.30;;;16.80;78.10;;;;;;4958749;28;20479;-78
2022/05/28 10:32:37;;;;;;;3.23;1.67;;;16.80;77.30;;;;;;4959030;28;20842;-79
2022/05/28 10:35:17;;;;;;;1.53;1.00;;;16.80;77.00;;;;;;4959315;28;20454;-79
2022/05/28 10:37:44;;;;;;;2.40;1.10;;;17.00;78.90;;;;;;4958714;28;20957;-79
2022/05/28 10:40:18;;;;;;;2.83;1.67;;;17.00;77.00;;;;;;4958657;28;20503;-79
2022/05/28 10:42:47;;;;;;;3.00;1.20;;;17.10;77.20;;;;;;4959226;28;20451;-79
2022/05/28 10:45:18;;;;;;;4.53;1.10;;;17.10;75.20;;;;;;4958539;28;20452;-79
2022/05/28 10:48:05;;;;;;;2.40;1.30;;;16.90;76.70;;;;;;4958843;28;20455;-79
2022/05/28 10:50:43;;;;;;;2.90;1.10;;;16.80;75.20;;;;;;4957944;28;20453;-79
2022/05/28 10:53:22;;;;;;;2.13;1.57;;;16.50;77.70;;;;;;4957929;28;20799;-78
2022/05/28 10:56:06;;;;;;;3.80;1.73;;;16.30;78.50;;;;;;4958442;28;20461;-78
2022/05/28 10:58:47;;;;;;;2.20;1.40;;;16.20;79.30;;;;;;4957875;28;20498;-78
2022/05/28 11:01:31;;;;;;;2.20;1.27;;;15.80;81.60;;;;;;4957779;28;20453;-78
2022/05/28 11:04:29;;;;;;;1.93;1.80;;;15.90;82.90;;;;;;4957958;28;20454;-78
2022/05/28 11:07:19;;;;;;;1.93;1.57;;;15.80;84.30;;;;;;4957753;28;20445;-78
2022/05/28 11:09:58;;;;;;;2.13;1.47;;;16.00;84.60;;;;;;4957778;28;20477;-79
2022/05/28 11:12:54;;;;;;;4.03;2.23;;;16.20;82.10;;;;;;4957857;28;20874;-79
2022/05/28 11:15:48;;;;;;;1.60;1.50;;;16.40;81.80;;;;;;4958823;28;20490;-79
2022/05/28 11:18:36;;;;;;;3.53;1.33;;;16.70;81.90;;;;;;4958349;28;20514;-79
2022/05/28 11:21:12;;;;;;;2.63;1.30;;;17.10;81.10;;;;;;4958504;28;20455;-79
2022/05/28 11:23:56;;;;;;;1.90;1.10;;;17.20;77.60;;;;;;4958004;28;20974;-79
2022/05/28 11:26:30;;;;;;;4.83;1.20;;;17.20;77.60;;;;;;4958095;28;20451;-79
2022/05/28 11:29:29;;;;;;;1.93;1.20;;;17.20;75.80;;;;;;4959438;28;20466;-78
2022/05/28 11:32:01;;;;;;;1.50;1.40;;;17.30;72.60;;;;;;4957968;28;20462;-79
2022/05/28 11:34:33;;;;;;;3.77;1.83;;;17.40;74.10;;;;;;4957857;28;20957;-79
2022/05/28 11:37:04;;;;;;;1.47;1.03;;;17.70;73.90;;;;;;4957221;28;20448;-79
2022/05/28 11:39:40;;;;;;;2.13;1.40;;;18.10;77.30;;;;;;4957811;28;20492;-79
2022/05/28 11:42:18;;;;;;;4.00;1.57;;;18.70;74.20;;;;;;4958104;28;20475;-79
2022/05/28 11:44:50;;;;;;;3.13;1.43;;;19.00;71.50;;;;;;4958066;28;20448;-79
2022/05/28 11:47:30;;;;;;;5.33;1.70;;;19.00;68.50;;;;;;4957705;28;20622;-80
2022/05/28 11:52:50;;;;;;;2.70;1.20;;;19.20;67.20;;;;;;4958379;29;20423;-80
2022/05/28 11:55:21;;;;;;;3.30;1.43;;;19.00;65.50;;;;;;4957931;28;20468;-79
2022/05/28 11:57:52;;;;;;;2.83;1.33;;;19.00;66.60;;;;;;4953901;28;20986;-80
2022/05/28 12:00:20;;;;;;;1.60;1.10;;;19.30;67.10;;;;;;4945138;28;20493;-79
2022/05/28 12:02:51;;;;;;;1.30;1.20;;;19.40;64.20;;;;;;4948735;29;20488;-80
2022/05/28 12:05:21;;;;;;;1.70;1.17;;;19.60;61.30;;;;;;4955255;28;20461;-78
2022/05/28 12:07:55;;;;;;;1.70;1.20;;;20.00;63.20;;;;;;4936473;29;20459;-78
2022/05/28 12:10:44;;;;;;;1.63;1.20;;;20.40;59.50;;;;;;4937271;29;20568;-78
2022/05/28 12:13:11;;;;;;;1.63;1.53;;;20.50;59.00;;;;;;4936742;29;20914;-79
2022/05/28 12:15:39;;;;;;;1.80;1.50;;;20.40;58.60;;;;;;4936836;29;20814;-78
2022/05/28 12:18:22;;;;;;;1.47;1.17;;;20.50;56.80;;;;;;4937283;29;20538;-77
2022/05/28 12:20:52;;;;;;;3.40;1.30;;;20.20;58.70;;;;;;4917878;29;20459;-78
2022/05/28 12:23:30;;;;;;;2.63;1.30;;;19.70;60.10;;;;;;4919717;29;20968;-77
2022/05/28 12:25:57;;;;;;;1.37;1.17;;;19.70;58.50;;;;;;4958261;28;20454;-76
2022/05/28 12:28:27;;;;;;;1.27;1.17;;;19.80;59.50;;;;;;4947717;28;20466;-77
2022/05/28 12:30:57;;;;;;;2.17;1.13;;;19.60;60.20;;;;;;4935181;29;20822;-77
2022/05/28 12:33:31;;;;;;;1.80;0.90;;;19.60;59.70;;;;;;4945766;29;20453;-78
2022/05/28 12:36:13;;;;;;;2.37;1.50;;;19.70;59.10;;;;;;4954605;28;20448;-77
2022/05/28 12:38:51;;;;;;;1.83;1.10;;;19.20;59.20;;;;;;4943329;28;20490;-77
2022/05/28 12:41:21;;;;;;;1.40;1.10;;;19.00;60.90;;;;;;4934881;29;20851;-77
2022/05/28 12:44:02;;;;;;;1.40;1.10;;;18.70;59.90;;;;;;4947240;29;20480;-77
2022/05/28 12:46:41;;;;;;;2.07;1.43;;;18.40;59.80;;;;;;4954135;28;20460;-77
2022/05/28 12:49:13;;;;;;;2.50;1.30;;;18.70;62.40;;;;;;4935160;28;20468;-78
2022/05/28 12:52:04;;;;;;;3.40;1.53;;;18.80;62.40;;;;;;4941734;29;20465;-77
2022/05/28 12:54:33;;;;;;;2.20;1.20;;;18.90;63.70;;;;;;4954315;28;20821;-77
2022/05/28 12:57:10;;;;;;;2.57;1.60;;;18.80;62.50;;;;;;4944795;28;20457;-78
2022/05/28 12:59:40;;;;;;;2.77;1.33;;;18.70;63.00;;;;;;4934798;29;20546;-78
2022/05/28 13:02:23;;;;;;;3.20;1.50;;;18.70;63.00;;;;;;4943989;29;20468;-78
2022/05/28 13:04:56;;;;;;;3.20;1.60;;;18.60;63.90;;;;;;4953521;28;20456;-78
2022/05/28 13:07:28;;;;;;;1.53;1.43;;;18.90;63.90;;;;;;4935080;29;20446;-78
2022/05/28 13:10:13;;;;;;;1.90;1.20;;;19.80;64.70;;;;;;4940782;29;20481;-77
2022/05/28 13:12:48;;;;;;;2.17;1.13;;;21.10;60.00;;;;;;4954087;28;20466;-78
2022/05/28 13:16:00;;;;;;;2.20;1.40;;;22.10;58.50;;;;;;4951700;28;20460;-78
2022/05/28 13:18:42;;;;;;;2.10;1.20;;;22.80;58.60;;;;;;4932535;29;20508;-79
2022/05/28 13:21:29;;;;;;;2.60;1.40;;;22.30;54.20;;;;;;4916357;29;20456;-78
2022/05/28 13:24:34;;;;;;;7.30;2.00;;;22.20;56.20;;;;;;4923231;29;20470;-80
2022/05/28 13:27:16;;;;;;;4.37;1.50;;;22.60;57.00;;;;;;4955785;28;20461;-81
2022/05/28 13:30:28;;;;;;;2.63;1.53;;;23.20;55.70;;;;;;4955519;28;20480;-85
2022/05/28 13:46:49;;;;;;;1.10;1.00;;;21.70;50.40;;;;;;4753716;30;20524;-84
2022/05/28 13:49:37;;;;;;;1.97;1.23;;;22.00;51.70;;;;;;4801344;29;21027;-85
2022/05/28 13:52:17;;;;;;;2.70;2.53;;;22.30;53.70;;;;;;4833919;29;20464;-84
2022/05/28 13:55:14;;;;;;;1.53;1.00;;;22.20;50.40;;;;;;4904030;29;20923;-85
2022/05/28 13:57:46;;;;;;;1.53;0.93;;;21.40;51.00;;;;;;4921942;29;20515;-83
2022/05/28 14:00:55;;;;;;;2.70;1.07;;;21.30;52.00;;;;;;4924836;29;20496;-85
2022/05/28 14:06:51;;;;;;;1.63;1.53;;;22.70;50.60;;;;;;4918462;29;20454;-86
2022/05/28 14:09:35;;;;;;;1.83;1.13;;;22.60;48.80;;;;;;4923707;29;20472;-86
2022/05/28 14:12:07;;;;;;;2.50;1.40;;;21.50;48.10;;;;;;4958813;28;21031;-85
2022/05/28 14:14:38;;;;;;;1.63;1.20;;;20.90;48.30;;;;;;4958951;28;20818;-85
2022/05/28 14:17:06;;;;;;;1.53;1.20;;;19.90;50.30;;;;;;4955754;28;20534;-84
2022/05/28 14:19:37;;;;;;;2.20;1.10;;;20.00;50.60;;;;;;4951212;29;20873;-85
2022/05/28 14:22:08;;;;;;;1.03;0.93;;;20.60;49.50;;;;;;4950215;29;20466;-85
2022/05/28 14:24:37;;;;;;;2.57;1.10;;;21.30;50.50;;;;;;4957727;28;20457;-85
2022/05/28 14:27:07;;;;;;;1.20;0.60;;;21.60;47.90;;;;;;4948017;28;20552;-86
2022/05/28 14:29:36;;;;;;;1.30;0.97;;;22.00;49.40;;;;;;4943075;29;20475;-86
2022/05/28 14:32:07;;;;;;;1.33;1.00;;;22.90;49.00;;;;;;4955836;28;20461;-85
2022/05/28 14:34:37;;;;;;;2.17;1.20;;;23.00;48.40;;;;;;4956775;28;20457;-85
2022/05/28 14:37:07;;;;;;;1.17;1.10;;;22.50;48.00;;;;;;4955731;28;20459;-85
2022/05/28 14:39:43;;;;;;;2.40;1.17;;;22.80;50.20;;;;;;4956200;28;20488;-85
2022/05/28 14:42:13;;;;;;;5.30;1.90;;;23.60;48.90;;;;;;4958236;28;21037;-85
2022/05/28 14:44:43;;;;;;;2.10;1.40;;;23.80;47.50;;;;;;4953078;28;20973;-86
2022/05/28 14:47:17;;;;;;;3.00;2.00;;;23.20;48.00;;;;;;4926447;29;20817;-83
2022/05/28 14:50:09;;;;;;;0.80;0.80;;;21.30;46.40;;;;;;4942107;29;20504;-85
2022/05/28 14:52:37;;;;;;;1.90;0.90;;;21.00;47.70;;;;;;5111127;23;20518;-84
2022/05/28 14:55:08;;;;;;;1.50;1.40;;;21.30;48.10;;;;;;4964372;28;20467;-85
2022/05/28 14:57:37;;;;;;;4.97;1.37;;;22.10;49.10;;;;;;4964815;28;20472;-84
2022/05/28 15:00:10;;;;;;;2.10;1.77;;;22.00;48.10;;;;;;4960762;28;20825;-84
2022/05/28 15:02:38;;;;;;;2.80;1.10;;;22.00;48.30;;;;;;4961657;28;20469;-82
2022/05/28 15:05:15;;;;;;;2.23;1.27;;;22.40;48.20;;;;;;4953481;28;20456;-81
2022/05/28 15:07:54;;;;;;;2.33;1.20;;;22.00;49.00;;;;;;4946540;29;20798;-85
2022/05/28 15:10:26;;;;;;;0.80;0.80;;;22.00;47.00;;;;;;4952266;28;20490;-84
2022/05/28 15:13:08;;;;;;;1.17;1.00;;;21.20;47.70;;;;;;4939885;29;20480;-84
2022/05/28 15:15:35;;;;;;;2.53;1.30;;;21.10;48.30;;;;;;4946731;29;20456;-86
2022/05/28 15:18:02;;;;;;;3.57;0.93;;;21.40;48.90;;;;;;4952805;28;20568;-83
2022/05/28 15:20:29;;;;;;;1.23;1.10;;;22.00;47.70;;;;;;4946168;28;20449;-86
2022/05/28 15:22:57;;;;;;;2.00;1.00;;;22.10;47.50;;;;;;4948476;29;20532;-85
2022/05/28 15:25:24;;;;;;;2.03;1.23;;;22.40;47.00;;;;;;4962607;28;20456;-86
2022/05/28 15:27:51;;;;;;;1.80;1.00;;;22.70;46.50;;;;;;4959275;28;20549;-86
2022/05/28 15:30:17;;;;;;;72.10;65.03;;;22.60;47.10;;;;;;4943341;29;20490;-85
2022/05/28 15:32:44;;;;;;;21.90;20.30;;;22.60;48.40;;;;;;4943069;28;20485;-86
2022/05/28 15:35:14;;;;;;;25.47;23.67;;;23.20;48.60;;;;;;4941393;28;20454;-86
2022/05/28 15:37:52;;;;;;;4.70;4.07;;;23.60;47.70;;;;;;4940998;28;20455;-85
2022/05/28 15:40:22;;;;;;;390.23;352.13;;;24.70;47.20;;;;;;4958756;28;20429;-86
2022/05/28 15:42:49;;;;;;;42.17;38.97;;;26.30;46.60;;;;;;4956959;28;20505;-85
2022/05/28 15:45:18;;;;;;;3.80;2.30;;;27.30;44.00;;;;;;4920392;29;20457;-85
2022/05/28 15:47:46;;;;;;;1.50;1.40;;;27.60;40.80;;;;;;4919980;29;20465;-85
2022/05/28 15:50:14;;;;;;;2.30;2.10;;;27.40;40.10;;;;;;4943811;29;20559;-85
2022/05/28 15:52:41;;;;;;;4.30;1.90;;;27.30;39.30;;;;;;4937797;29;20485;-85
2022/05/28 15:55:09;;;;;;;1.97;1.17;;;27.30;38.50;;;;;;4951463;29;20461;-86
2022/05/28 15:57:41;;;;;;;1.80;1.20;;;26.80;39.00;;;;;;4957605;28;20492;-86
2022/05/28 16:00:10;;;;;;;2.23;2.03;;;27.10;39.30;;;;;;4944638;28;20468;-82
2022/05/28 16:02:37;;;;;;;3.10;1.70;;;27.70;39.00;;;;;;4939189;29;20474;-85
2022/05/28 16:05:13;;;;;;;6.07;5.57;;;27.70;38.60;;;;;;4950281;29;20838;-85
2022/05/28 16:07:41;;;;;;;23.70;19.07;;;27.10;38.80;;;;;;4938002;29;20484;-85
2022/05/28 16:10:08;;;;;;;5.10;4.60;;;26.50;38.30;;;;;;4937715;28;20489;-85
2022/05/28 16:12:35;;;;;;;53.83;48.63;;;25.10;39.10;;;;;;4938429;29;20476;-85
2022/05/28 16:15:03;;;;;;;3.23;2.40;;;24.50;41.00;;;;;;4939772;28;20467;-86
2022/05/28 16:17:30;;;;;;;3.03;2.83;;;24.40;40.70;;;;;;4940509;29;20829;-86
2022/05/28 16:19:56;;;;;;;8.10;4.33;;;23.80;41.60;;;;;;4942597;29;20460;-86
2022/05/28 16:22:23;;;;;;;9.97;9.13;;;23.60;41.70;;;;;;4959152;28;20478;-86
2022/05/28 16:24:50;;;;;;;118.07;107.30;;;23.80;42.50;;;;;;4951212;28;20438;-86
2022/05/28 16:27:17;;;;;;;9.50;8.63;;;23.80;42.50;;;;;;4948377;28;20458;-85
2022/05/28 16:29:44;;;;;;;5.43;5.00;;;24.10;42.00;;;;;;4949187;29;20864;-86
2022/05/28 16:32:12;;;;;;;46.33;41.27;;;24.00;42.80;;;;;;4948510;28;20481;-85
2022/05/28 16:34:39;;;;;;;8.80;6.93;;;24.10;42.90;;;;;;4950438;28;20470;-85
2022/05/28 16:37:06;;;;;;;9.83;7.70;;;23.70;42.70;;;;;;4948424;29;20449;-86